This is the latest recevied weather packets stored in our database for station/object F8BJE-13. If no packets are shown the sender has not sent any weather packets the latest 10 day(s).
| Time | Temp. | Humidity | Pressure | Rain* | Wind** | Luminosity | Snow |
|---|---|---|---|---|---|---|---|
| 1778011057 | 11.67° C | 91% | 1008.9 hPa | 0 mm | - | - | - |
| 1778009256 | 11.67° C | 90% | 1008.7 hPa | 0 mm | - | - | - |
| 1778007456 | 11.67° C | 89% | 1008.5 hPa | 0 mm | - | - | - |
| 1778005657 | 12.22° C | 88% | 1008.5 hPa | 0 mm | - | - | - |
| 1778003857 | 12.22° C | 86% | 1008.4 hPa | 0 mm | - | - | - |
| 1778002056 | 12.78° C | 84% | 1008.6 hPa | 0 mm | - | - | - |
| 1777998457 | 15° C | 81% | 1008.6 hPa | 0 mm | - | - | - |
| 1777996655 | 12.78° C | 86% | 1008.6 hPa | 0 mm | - | - | - |
| 1777994856 | 12.78° C | 83% | 1008.7 hPa | 0 mm | - | - | - |
| 1777993056 | 13.33° C | 84% | 1008.5 hPa | 0 mm | - | - | - |
| 1777991255 | 13.33° C | 82% | 1008.4 hPa | 0 mm | - | - | - |
| 1777989455 | 13.89° C | 81% | 1008.4 hPa | 0.25 mm | - | - | - |
| 1777987657 | 15.56° C | 75% | 1008.4 hPa | 1.02 mm | - | - | - |
| 1777985855 | 14.44° C | 79% | 1008.5 hPa | 0.76 mm | - | - | - |
| 1777984056 | 16.11° C | 69% | 1008.2 hPa | 0 mm | - | - | - |
| 1777982257 | 14.44° C | 80% | 1008.4 hPa | 0 mm | - | - | - |
| 1777980455 | 14.44° C | 79% | 1008.6 hPa | 0 mm | - | - | - |
| 1777978656 | 13.33° C | 81% | 1009 hPa | 0 mm | - | - | - |
| 1777976855 | 13.33° C | 81% | 1009 hPa | 0 mm | - | - | - |
| 1777975055 | 13.89° C | 82% | 1009.1 hPa | 0 mm | - | - | - |
| 1777973257 | 12.78° C | 91% | 1009.1 hPa | 0.25 mm | - | - | - |
| 1777971456 | 11.67° C | 91% | 1009.2 hPa | 0.25 mm | - | - | - |
| 1777969656 | 11.67° C | 90% | 1009.2 hPa | 0 mm | - | - | - |
| 1777967855 | 12.22° C | 90% | 1009.2 hPa | 0 mm | - | - | - |
| 1777966056 | 12.22° C | 94% | 1009.4 hPa | 0.25 mm | - | - | - |
* Rain latest hour (hover to see other rain measurements)
** Current wind speed in m/s (hover to see current wind gust speed)